sensor_id;sensor_type;location;lat;lon;timestamp;temperature;humidity
41547;DHT22;27271;45.412;10.852;2023-05-27T00:00:08;20.60;15.60
41547;DHT22;27271;45.412;10.852;2023-05-27T00:03:30;20.60;9.60
41547;DHT22;27271;45.412;10.852;2023-05-27T00:06:53;20.60;13.40
41547;DHT22;27271;45.412;10.852;2023-05-27T00:10:15;20.70;1.00
41547;DHT22;27271;45.412;10.852;2023-05-27T00:13:37;20.70;7.60
41547;DHT22;27271;45.412;10.852;2023-05-27T00:16:59;20.70;16.10
41547;DHT22;27271;45.412;10.852;2023-05-27T00:20:24;20.80;54.90
41547;DHT22;27271;45.412;10.852;2023-05-27T00:23:46;20.80;52.70
41547;DHT22;27271;45.412;10.852;2023-05-27T00:27:09;20.80;55.70
41547;DHT22;27271;45.412;10.852;2023-05-27T00:30:32;20.80;23.60
41547;DHT22;27271;45.412;10.852;2023-05-27T00:33:56;20.90;30.00
41547;DHT22;27271;45.412;10.852;2023-05-27T00:37:18;21.00;36.70
41547;DHT22;27271;45.412;10.852;2023-05-27T00:40:41;21.10;20.60
41547;DHT22;27271;45.412;10.852;2023-05-27T00:44:03;21.20;1.00
41547;DHT22;27271;45.412;10.852;2023-05-27T00:47:30;21.10;12.80
41547;DHT22;27271;45.412;10.852;2023-05-27T00:50:53;20.90;1.00
41547;DHT22;27271;45.412;10.852;2023-05-27T00:54:15;20.80;1.00
41547;DHT22;27271;45.412;10.852;2023-05-27T00:57:37;20.60;59.10
41547;DHT22;27271;45.412;10.852;2023-05-27T01:01:01;20.10;99.90
41547;DHT22;27271;45.412;10.852;2023-05-27T01:04:25;19.40;1.00
41547;DHT22;27271;45.412;10.852;2023-05-27T01:08:03;18.90;99.90
41547;DHT22;27271;45.412;10.852;2023-05-27T01:11:37;18.60;99.90
41547;DHT22;27271;45.412;10.852;2023-05-27T01:15:00;18.40;99.90
41547;DHT22;27271;45.412;10.852;2023-05-27T01:18:24;18.10;1.00
41547;DHT22;27271;45.412;10.852;2023-05-27T01:21:48;18.10;39.10
41547;DHT22;27271;45.412;10.852;2023-05-27T01:25:13;18.00;47.00
41547;DHT22;27271;45.412;10.852;2023-05-27T01:28:36;17.90;65.00
41547;DHT22;27271;45.412;10.852;2023-05-27T01:32:18;17.90;73.40
41547;DHT22;27271;45.412;10.852;2023-05-27T01:35:52;17.70;90.50
41547;DHT22;27271;45.412;10.852;2023-05-27T01:39:16;17.60;98.80
41547;DHT22;27271;45.412;10.852;2023-05-27T01:42:39;17.40;99.90
41547;DHT22;27271;45.412;10.852;2023-05-27T01:46:03;17.40;99.90
41547;DHT22;27271;45.412;10.852;2023-05-27T01:49:26;17.30;99.90
41547;DHT22;27271;45.412;10.852;2023-05-27T01:52:48;17.20;99.90
41547;DHT22;27271;45.412;10.852;2023-05-27T01:56:10;17.10;99.90
41547;DHT22;27271;45.412;10.852;2023-05-27T01:59:32;17.00;99.90
41547;DHT22;27271;45.412;10.852;2023-05-27T02:02:54;17.00;99.90
41547;DHT22;27271;45.412;10.852;2023-05-27T02:06:17;16.90;99.90
41547;DHT22;27271;45.412;10.852;2023-05-27T02:09:39;16.90;99.90
41547;DHT22;27271;45.412;10.852;2023-05-27T02:13:01;17.00;99.90
41547;DHT22;27271;45.412;10.852;2023-05-27T02:16:23;17.10;99.90
41547;DHT22;27271;45.412;10.852;2023-05-27T02:19:45;17.20;99.90
41547;DHT22;27271;45.412;10.852;2023-05-27T02:23:07;17.30;99.90
41547;DHT22;27271;45.412;10.852;2023-05-27T02:26:30;17.20;99.90
41547;DHT22;27271;45.412;10.852;2023-05-27T02:29:55;17.10;99.90
41547;DHT22;27271;45.412;10.852;2023-05-27T02:33:19;17.00;99.90
41547;DHT22;27271;45.412;10.852;2023-05-27T02:36:42;16.90;99.90
41547;DHT22;27271;45.412;10.852;2023-05-27T02:40:06;16.90;99.90
41547;DHT22;27271;45.412;10.852;2023-05-27T02:43:30;16.90;99.90
41547;DHT22;27271;45.412;10.852;2023-05-27T02:46:52;16.80;99.90
41547;DHT22;27271;45.412;10.852;2023-05-27T02:50:14;16.80;99.90
41547;DHT22;27271;45.412;10.852;2023-05-27T02:53:36;16.80;99.90
41547;DHT22;27271;45.412;10.852;2023-05-27T02:56:58;16.80;99.90
41547;DHT22;27271;45.412;10.852;2023-05-27T03:00:20;16.80;99.90
41547;DHT22;27271;45.412;10.852;2023-05-27T03:03:43;16.80;99.90
41547;DHT22;27271;45.412;10.852;2023-05-27T03:07:07;16.80;99.90
41547;DHT22;27271;45.412;10.852;2023-05-27T03:10:29;16.60;99.90
41547;DHT22;27271;45.412;10.852;2023-05-27T03:13:52;16.50;99.90
41547;DHT22;27271;45.412;10.852;2023-05-27T03:17:15;16.50;99.90
41547;DHT22;27271;45.412;10.852;2023-05-27T03:20:37;16.40;99.90
41547;DHT22;27271;45.412;10.852;2023-05-27T03:23:59;16.20;99.90
41547;DHT22;27271;45.412;10.852;2023-05-27T03:27:22;16.10;99.90
41547;DHT22;27271;45.412;10.852;2023-05-27T03:30:44;16.00;99.90
41547;DHT22;27271;45.412;10.852;2023-05-27T03:34:18;15.90;99.90
41547;DHT22;27271;45.412;10.852;2023-05-27T03:37:40;15.80;99.90
41547;DHT22;27271;45.412;10.852;2023-05-27T03:41:03;15.80;99.90
41547;DHT22;27271;45.412;10.852;2023-05-27T03:44:26;15.70;99.90
41547;DHT22;27271;45.412;10.852;2023-05-27T03:47:48;15.70;99.90
41547;DHT22;27271;45.412;10.852;2023-05-27T03:51:12;15.60;99.90
41547;DHT22;27271;45.412;10.852;2023-05-27T03:54:34;15.60;99.90
41547;DHT22;27271;45.412;10.852;2023-05-27T03:57:56;15.60;99.90
41547;DHT22;27271;45.412;10.852;2023-05-27T04:01:18;15.70;99.90
41547;DHT22;27271;45.412;10.852;2023-05-27T04:04:42;15.60;99.90
41547;DHT22;27271;45.412;10.852;2023-05-27T04:08:04;15.70;99.90
41547;DHT22;27271;45.412;10.852;2023-05-27T04:11:27;15.80;99.90
41547;DHT22;27271;45.412;10.852;2023-05-27T04:14:49;15.70;99.90
41547;DHT22;27271;45.412;10.852;2023-05-27T04:18:12;15.90;99.90
41547;DHT22;27271;45.412;10.852;2023-05-27T04:21:37;15.90;99.90
41547;DHT22;27271;45.412;10.852;2023-05-27T04:25:00;15.90;99.90
41547;DHT22;27271;45.412;10.852;2023-05-27T04:28:28;16.00;99.90
41547;DHT22;27271;45.412;10.852;2023-05-27T04:31:51;16.10;99.90
41547;DHT22;27271;45.412;10.852;2023-05-27T04:35:15;16.30;99.90
41547;DHT22;27271;45.412;10.852;2023-05-27T04:38:38;16.50;99.90
41547;DHT22;27271;45.412;10.852;2023-05-27T04:42:02;16.70;99.90
41547;DHT22;27271;45.412;10.852;2023-05-27T04:45:26;16.90;99.90
41547;DHT22;27271;45.412;10.852;2023-05-27T04:48:48;17.10;99.90
41547;DHT22;27271;45.412;10.852;2023-05-27T04:52:13;17.30;99.90
41547;DHT22;27271;45.412;10.852;2023-05-27T04:55:35;17.50;99.90
41547;DHT22;27271;45.412;10.852;2023-05-27T04:58:59;17.50;99.90
41547;DHT22;27271;45.412;10.852;2023-05-27T05:02:26;17.60;99.90
41547;DHT22;27271;45.412;10.852;2023-05-27T05:06:00;17.70;99.90
41547;DHT22;27271;45.412;10.852;2023-05-27T05:09:24;17.60;99.90
41547;DHT22;27271;45.412;10.852;2023-05-27T05:12:46;17.70;99.90
41547;DHT22;27271;45.412;10.852;2023-05-27T05:16:08;17.70;99.90
41547;DHT22;27271;45.412;10.852;2023-05-27T05:19:31;17.90;99.90
41547;DHT22;27271;45.412;10.852;2023-05-27T05:22:53;18.10;99.90
41547;DHT22;27271;45.412;10.852;2023-05-27T05:26:17;18.40;99.90
41547;DHT22;27271;45.412;10.852;2023-05-27T05:29:40;18.70;99.90
41547;DHT22;27271;45.412;10.852;2023-05-27T05:33:04;19.30;1.00
41547;DHT22;27271;45.412;10.852;2023-05-27T05:36:27;19.60;1.00
41547;DHT22;27271;45.412;10.852;2023-05-27T05:39:54;19.70;1.00
41547;DHT22;27271;45.412;10.852;2023-05-27T05:43:19;19.90;34.00
41547;DHT22;27271;45.412;10.852;2023-05-27T05:46:43;19.90;1.00
41547;DHT22;27271;45.412;10.852;2023-05-27T05:50:06;19.90;1.00
41547;DHT22;27271;45.412;10.852;2023-05-27T05:53:30;20.10;49.90
41547;DHT22;27271;45.412;10.852;2023-05-27T05:56:54;20.10;1.90
41547;DHT22;27271;45.412;10.852;2023-05-27T06:00:17;20.10;1.00
41547;DHT22;27271;45.412;10.852;2023-05-27T06:03:39;20.20;89.10
41547;DHT22;27271;45.412;10.852;2023-05-27T06:07:07;20.20;62.70
41547;DHT22;27271;45.412;10.852;2023-05-27T06:10:42;20.40;18.50
41547;DHT22;27271;45.412;10.852;2023-05-27T06:14:04;20.40;42.30
41547;DHT22;27271;45.412;10.852;2023-05-27T06:17:27;20.30;99.90
41547;DHT22;27271;45.412;10.852;2023-05-27T06:20:50;20.70;99.90
41547;DHT22;27271;45.412;10.852;2023-05-27T06:24:14;21.20;1.00
41547;DHT22;27271;45.412;10.852;2023-05-27T06:27:42;21.60;1.00
41547;DHT22;27271;45.412;10.852;2023-05-27T06:31:05;22.50;99.90
41547;DHT22;27271;45.412;10.852;2023-05-27T06:34:28;24.40;99.90
41547;DHT22;27271;45.412;10.852;2023-05-27T06:37:50;26.30;99.90
41547;DHT22;27271;45.412;10.852;2023-05-27T06:41:14;27.80;8.80
41547;DHT22;27271;45.412;10.852;2023-05-27T06:44:48;29.10;1.00
41547;DHT22;27271;45.412;10.852;2023-05-27T06:48:14;29.50;1.00
41547;DHT22;27271;45.412;10.852;2023-05-27T06:51:37;30.20;1.00
41547;DHT22;27271;45.412;10.852;2023-05-27T06:54:59;30.40;1.00
41547;DHT22;27271;45.412;10.852;2023-05-27T06:58:40;30.90;1.00
41547;DHT22;27271;45.412;10.852;2023-05-27T07:02:08;31.20;1.00
41547;DHT22;27271;45.412;10.852;2023-05-27T07:05:30;31.40;1.00
41547;DHT22;27271;45.412;10.852;2023-05-27T07:08:52;31.70;1.00
41547;DHT22;27271;45.412;10.852;2023-05-27T07:12:22;31.20;1.00
41547;DHT22;27271;45.412;10.852;2023-05-27T07:15:47;31.40;1.00
41547;DHT22;27271;45.412;10.852;2023-05-27T07:19:09;30.80;1.00
41547;DHT22;27271;45.412;10.852;2023-05-27T07:22:47;31.00;1.00
41547;DHT22;27271;45.412;10.852;2023-05-27T07:26:23;32.10;1.00
41547;DHT22;27271;45.412;10.852;2023-05-27T07:29:46;33.00;1.00
41547;DHT22;27271;45.412;10.852;2023-05-27T07:33:26;33.10;1.00
41547;DHT22;27271;45.412;10.852;2023-05-27T07:36:50;33.40;1.00
41547;DHT22;27271;45.412;10.852;2023-05-27T07:40:18;33.80;1.00
41547;DHT22;27271;45.412;10.852;2023-05-27T07:43:56;34.50;99.90
41547;DHT22;27271;45.412;10.852;2023-05-27T07:47:18;33.30;99.90
41547;DHT22;27271;45.412;10.852;2023-05-27T07:50:40;33.30;99.90
41547;DHT22;27271;45.412;10.852;2023-05-27T07:54:09;34.00;99.90
41547;DHT22;27271;45.412;10.852;2023-05-27T07:57:31;33.70;99.90
41547;DHT22;27271;45.412;10.852;2023-05-27T08:00:53;33.40;99.90
41547;DHT22;27271;45.412;10.852;2023-05-27T08:04:17;33.40;99.90
41547;DHT22;27271;45.412;10.852;2023-05-27T08:08:13;33.60;99.90
41547;DHT22;27271;45.412;10.852;2023-05-27T08:11:58;33.10;99.90
41547;DHT22;27271;45.412;10.852;2023-05-27T08:15:35;32.20;99.90
41547;DHT22;27271;45.412;10.852;2023-05-27T08:19:10;31.80;99.90
41547;DHT22;27271;45.412;10.852;2023-05-27T08:22:49;31.40;99.90
41547;DHT22;27271;45.412;10.852;2023-05-27T08:26:30;31.60;99.90
41547;DHT22;27271;45.412;10.852;2023-05-27T08:30:08;31.60;99.90
41547;DHT22;27271;45.412;10.852;2023-05-27T08:33:56;31.50;99.90
41547;DHT22;27271;45.412;10.852;2023-05-27T08:37:18;32.30;99.90
41547;DHT22;27271;45.412;10.852;2023-05-27T08:40:42;33.10;99.90
41547;DHT22;27271;45.412;10.852;2023-05-27T08:44:04;33.40;99.90
41547;DHT22;27271;45.412;10.852;2023-05-27T08:47:49;33.20;99.90
41547;DHT22;27271;45.412;10.852;2023-05-27T08:51:16;32.70;99.90
41547;DHT22;27271;45.412;10.852;2023-05-27T08:54:41;32.90;99.90
41547;DHT22;27271;45.412;10.852;2023-05-27T08:58:05;32.60;99.90
41547;DHT22;27271;45.412;10.852;2023-05-27T09:01:33;32.20;99.90
41547;DHT22;27271;45.412;10.852;2023-05-27T09:04:57;32.30;99.90
41547;DHT22;27271;45.412;10.852;2023-05-27T09:08:19;32.70;99.90
41547;DHT22;27271;45.412;10.852;2023-05-27T09:11:41;31.50;99.90
41547;DHT22;27271;45.412;10.852;2023-05-27T09:15:05;32.10;99.90
41547;DHT22;27271;45.412;10.852;2023-05-27T09:18:28;32.70;99.90
41547;DHT22;27271;45.412;10.852;2023-05-27T09:21:52;32.60;99.90
41547;DHT22;27271;45.412;10.852;2023-05-27T09:25:16;32.90;99.90
41547;DHT22;27271;45.412;10.852;2023-05-27T09:28:39;32.10;99.90
41547;DHT22;27271;45.412;10.852;2023-05-27T09:32:02;31.20;99.90
41547;DHT22;27271;45.412;10.852;2023-05-27T09:35:25;31.50;99.90
41547;DHT22;27271;45.412;10.852;2023-05-27T09:38:47;32.20;99.90
41547;DHT22;27271;45.412;10.852;2023-05-27T09:42:10;32.40;99.90
41547;DHT22;27271;45.412;10.852;2023-05-27T09:45:33;32.30;99.90
41547;DHT22;27271;45.412;10.852;2023-05-27T09:48:57;31.40;99.90
41547;DHT22;27271;45.412;10.852;2023-05-27T09:52:20;31.10;99.90
41547;DHT22;27271;45.412;10.852;2023-05-27T09:55:43;31.70;99.90
41547;DHT22;27271;45.412;10.852;2023-05-27T09:59:06;32.10;99.90
41547;DHT22;27271;45.412;10.852;2023-05-27T10:02:30;31.10;99.90
41547;DHT22;27271;45.412;10.852;2023-05-27T10:05:52;30.90;99.90
41547;DHT22;27271;45.412;10.852;2023-05-27T10:09:15;31.60;99.90
41547;DHT22;27271;45.412;10.852;2023-05-27T10:12:39;31.80;99.90
41547;DHT22;27271;45.412;10.852;2023-05-27T10:16:02;32.10;99.90
41547;DHT22;27271;45.412;10.852;2023-05-27T10:19:24;32.10;99.90
41547;DHT22;27271;45.412;10.852;2023-05-27T10:23:08;30.70;99.90
41547;DHT22;27271;45.412;10.852;2023-05-27T10:26:36;30.60;99.90
41547;DHT22;27271;45.412;10.852;2023-05-27T10:29:59;30.90;99.90
41547;DHT22;27271;45.412;10.852;2023-05-27T10:33:34;30.30;99.90
41547;DHT22;27271;45.412;10.852;2023-05-27T10:37:00;29.90;99.90
41547;DHT22;27271;45.412;10.852;2023-05-27T10:40:25;29.80;99.90
41547;DHT22;27271;45.412;10.852;2023-05-27T10:43:55;29.30;99.90
41547;DHT22;27271;45.412;10.852;2023-05-27T10:47:28;29.40;99.90
41547;DHT22;27271;45.412;10.852;2023-05-27T10:50:56;29.80;99.90
41547;DHT22;27271;45.412;10.852;2023-05-27T10:54:19;29.50;99.90
41547;DHT22;27271;45.412;10.852;2023-05-27T10:57:50;29.70;99.90
41547;DHT22;27271;45.412;10.852;2023-05-27T11:01:23;29.70;99.90
41547;DHT22;27271;45.412;10.852;2023-05-27T11:04:48;29.30;99.90
41547;DHT22;27271;45.412;10.852;2023-05-27T11:08:13;29.10;99.90
41547;DHT22;27271;45.412;10.852;2023-05-27T11:11:35;29.40;99.90
41547;DHT22;27271;45.412;10.852;2023-05-27T11:14:59;30.10;99.90
41547;DHT22;27271;45.412;10.852;2023-05-27T11:18:21;30.40;99.90
41547;DHT22;27271;45.412;10.852;2023-05-27T11:21:49;30.60;99.90
41547;DHT22;27271;45.412;10.852;2023-05-27T11:25:11;30.30;99.90
41547;DHT22;27271;45.412;10.852;2023-05-27T11:28:34;29.80;99.90
41547;DHT22;27271;45.412;10.852;2023-05-27T11:32:07;29.20;99.90
41547;DHT22;27271;45.412;10.852;2023-05-27T11:35:30;28.70;99.90
41547;DHT22;27271;45.412;10.852;2023-05-27T11:38:57;28.40;99.90
41547;DHT22;27271;45.412;10.852;2023-05-27T11:42:23;28.40;99.90
41547;DHT22;27271;45.412;10.852;2023-05-27T11:45:46;29.00;99.90
41547;DHT22;27271;45.412;10.852;2023-05-27T11:49:10;29.40;99.90
41547;DHT22;27271;45.412;10.852;2023-05-27T11:52:35;29.20;99.90
41547;DHT22;27271;45.412;10.852;2023-05-27T11:55:57;29.40;99.90
41547;DHT22;27271;45.412;10.852;2023-05-27T11:59:20;29.90;99.90
41547;DHT22;27271;45.412;10.852;2023-05-27T12:02:44;30.00;99.90
41547;DHT22;27271;45.412;10.852;2023-05-27T12:06:07;30.20;99.90
41547;DHT22;27271;45.412;10.852;2023-05-27T12:09:29;30.10;99.90
41547;DHT22;27271;45.412;10.852;2023-05-27T12:12:51;30.00;99.90
41547;DHT22;27271;45.412;10.852;2023-05-27T12:16:13;28.90;99.90
41547;DHT22;27271;45.412;10.852;2023-05-27T12:19:35;28.10;99.90
41547;DHT22;27271;45.412;10.852;2023-05-27T12:23:02;27.60;99.90
41547;DHT22;27271;45.412;10.852;2023-05-27T12:26:24;28.10;99.90
41547;DHT22;27271;45.412;10.852;2023-05-27T12:29:47;28.00;99.90
41547;DHT22;27271;45.412;10.852;2023-05-27T12:33:09;27.60;99.90
41547;DHT22;27271;45.412;10.852;2023-05-27T12:36:32;27.50;99.90
41547;DHT22;27271;45.412;10.852;2023-05-27T12:39:54;27.40;99.90
41547;DHT22;27271;45.412;10.852;2023-05-27T12:43:17;27.80;99.90
41547;DHT22;27271;45.412;10.852;2023-05-27T12:46:39;27.90;99.90
41547;DHT22;27271;45.412;10.852;2023-05-27T12:50:01;28.10;99.90
41547;DHT22;27271;45.412;10.852;2023-05-27T12:53:23;28.10;99.90
41547;DHT22;27271;45.412;10.852;2023-05-27T12:56:45;28.20;99.90
41547;DHT22;27271;45.412;10.852;2023-05-27T13:00:08;28.40;99.90
41547;DHT22;27271;45.412;10.852;2023-05-27T13:03:31;28.30;99.90
41547;DHT22;27271;45.412;10.852;2023-05-27T13:06:54;28.40;99.90
41547;DHT22;27271;45.412;10.852;2023-05-27T13:10:16;28.30;99.90
41547;DHT22;27271;45.412;10.852;2023-05-27T13:13:43;28.20;99.90
41547;DHT22;27271;45.412;10.852;2023-05-27T13:17:07;28.50;99.90
41547;DHT22;27271;45.412;10.852;2023-05-27T13:20:30;28.80;99.90
41547;DHT22;27271;45.412;10.852;2023-05-27T13:23:52;28.20;99.90
41547;DHT22;27271;45.412;10.852;2023-05-27T13:27:15;28.30;99.90
41547;DHT22;27271;45.412;10.852;2023-05-27T13:30:41;28.30;99.90
41547;DHT22;27271;45.412;10.852;2023-05-27T13:34:06;28.30;99.90
41547;DHT22;27271;45.412;10.852;2023-05-27T13:37:29;28.40;99.90
41547;DHT22;27271;45.412;10.852;2023-05-27T13:40:57;28.50;99.90
41547;DHT22;27271;45.412;10.852;2023-05-27T13:44:22;28.00;99.90
41547;DHT22;27271;45.412;10.852;2023-05-27T13:47:45;28.10;99.90
41547;DHT22;27271;45.412;10.852;2023-05-27T13:51:08;28.30;99.90
41547;DHT22;27271;45.412;10.852;2023-05-27T13:54:34;28.30;99.90
41547;DHT22;27271;45.412;10.852;2023-05-27T13:57:58;28.60;99.90
41547;DHT22;27271;45.412;10.852;2023-05-27T14:01:21;28.70;99.90
41547;DHT22;27271;45.412;10.852;2023-05-27T14:04:44;28.90;99.90
41547;DHT22;27271;45.412;10.852;2023-05-27T14:08:11;28.40;99.90
41547;DHT22;27271;45.412;10.852;2023-05-27T14:11:33;28.60;99.90
41547;DHT22;27271;45.412;10.852;2023-05-27T14:14:58;28.60;99.90
41547;DHT22;27271;45.412;10.852;2023-05-27T14:18:21;28.40;99.90
41547;DHT22;27271;45.412;10.852;2023-05-27T14:21:47;27.90;99.90
41547;DHT22;27271;45.412;10.852;2023-05-27T14:25:09;28.10;99.90
41547;DHT22;27271;45.412;10.852;2023-05-27T14:28:32;28.20;99.90
41547;DHT22;27271;45.412;10.852;2023-05-27T14:31:57;28.10;99.90
41547;DHT22;27271;45.412;10.852;2023-05-27T14:35:21;28.00;99.90
41547;DHT22;27271;45.412;10.852;2023-05-27T14:38:45;27.80;99.90
41547;DHT22;27271;45.412;10.852;2023-05-27T14:42:08;27.70;99.90
41547;DHT22;27271;45.412;10.852;2023-05-27T14:45:34;27.40;99.90
41547;DHT22;27271;45.412;10.852;2023-05-27T14:48:57;27.40;99.90
41547;DHT22;27271;45.412;10.852;2023-05-27T14:52:23;27.10;99.90
41547;DHT22;27271;45.412;10.852;2023-05-27T14:55:45;27.20;99.90
41547;DHT22;27271;45.412;10.852;2023-05-27T14:59:08;28.30;99.90
41547;DHT22;27271;45.412;10.852;2023-05-27T15:02:31;28.50;99.90
41547;DHT22;27271;45.412;10.852;2023-05-27T15:05:53;27.90;99.90
41547;DHT22;27271;45.412;10.852;2023-05-27T15:09:19;27.40;99.90
41547;DHT22;27271;45.412;10.852;2023-05-27T15:12:44;26.80;99.90
41547;DHT22;27271;45.412;10.852;2023-05-27T15:16:08;26.30;99.90
41547;DHT22;27271;45.412;10.852;2023-05-27T15:19:30;26.20;99.90
41547;DHT22;27271;45.412;10.852;2023-05-27T15:22:52;26.40;99.90
41547;DHT22;27271;45.412;10.852;2023-05-27T15:26:14;27.10;99.90
41547;DHT22;27271;45.412;10.852;2023-05-27T15:29:37;27.50;99.90
41547;DHT22;27271;45.412;10.852;2023-05-27T15:32:59;27.30;99.90
41547;DHT22;27271;45.412;10.852;2023-05-27T15:36:21;26.90;99.90
41547;DHT22;27271;45.412;10.852;2023-05-27T15:39:43;26.50;99.90
41547;DHT22;27271;45.412;10.852;2023-05-27T15:43:05;26.80;99.90
41547;DHT22;27271;45.412;10.852;2023-05-27T15:46:27;26.80;99.90
41547;DHT22;27271;45.412;10.852;2023-05-27T15:49:49;26.80;99.90
41547;DHT22;27271;45.412;10.852;2023-05-27T15:53:11;26.70;99.90
41547;DHT22;27271;45.412;10.852;2023-05-27T15:56:33;26.80;99.90
41547;DHT22;27271;45.412;10.852;2023-05-27T15:59:55;26.50;99.90
41547;DHT22;27271;45.412;10.852;2023-05-27T16:03:17;26.50;99.90
41547;DHT22;27271;45.412;10.852;2023-05-27T16:06:40;26.20;99.90
41547;DHT22;27271;45.412;10.852;2023-05-27T16:10:02;26.10;99.90
41547;DHT22;27271;45.412;10.852;2023-05-27T16:13:24;26.00;99.90
41547;DHT22;27271;45.412;10.852;2023-05-27T16:16:47;26.00;99.90
41547;DHT22;27271;45.412;10.852;2023-05-27T16:20:10;25.70;99.90
41547;DHT22;27271;45.412;10.852;2023-05-27T16:23:33;25.50;99.90
41547;DHT22;27271;45.412;10.852;2023-05-27T16:26:56;25.40;99.90
41547;DHT22;27271;45.412;10.852;2023-05-27T16:30:18;25.10;99.90
41547;DHT22;27271;45.412;10.852;2023-05-27T16:33:40;25.00;99.90
41547;DHT22;27271;45.412;10.852;2023-05-27T16:37:02;25.00;99.90
41547;DHT22;27271;45.412;10.852;2023-05-27T16:40:24;24.80;99.90
41547;DHT22;27271;45.412;10.852;2023-05-27T16:43:46;24.50;99.90
41547;DHT22;27271;45.412;10.852;2023-05-27T16:47:08;24.50;1.00
41547;DHT22;27271;45.412;10.852;2023-05-27T16:50:30;24.40;1.00
41547;DHT22;27271;45.412;10.852;2023-05-27T16:53:52;24.10;1.00
41547;DHT22;27271;45.412;10.852;2023-05-27T16:57:15;23.90;1.00
41547;DHT22;27271;45.412;10.852;2023-05-27T17:00:54;24.00;1.00
41547;DHT22;27271;45.412;10.852;2023-05-27T17:04:16;24.00;1.00
41547;DHT22;27271;45.412;10.852;2023-05-27T17:07:39;24.10;1.00
41547;DHT22;27271;45.412;10.852;2023-05-27T17:11:04;24.20;1.00
41547;DHT22;27271;45.412;10.852;2023-05-27T17:14:27;24.30;1.00
41547;DHT22;27271;45.412;10.852;2023-05-27T17:17:52;24.30;1.00
41547;DHT22;27271;45.412;10.852;2023-05-27T17:21:14;24.40;1.00
41547;DHT22;27271;45.412;10.852;2023-05-27T17:24:38;24.50;1.00
41547;DHT22;27271;45.412;10.852;2023-05-27T17:28:02;24.50;1.00
41547;DHT22;27271;45.412;10.852;2023-05-27T17:31:25;24.40;1.00
41547;DHT22;27271;45.412;10.852;2023-05-27T17:34:47;24.50;1.00
41547;DHT22;27271;45.412;10.852;2023-05-27T17:38:10;24.30;1.00
41547;DHT22;27271;45.412;10.852;2023-05-27T17:41:33;24.20;1.00
41547;DHT22;27271;45.412;10.852;2023-05-27T17:44:55;24.10;1.00
41547;DHT22;27271;45.412;10.852;2023-05-27T17:48:17;24.00;1.00
41547;DHT22;27271;45.412;10.852;2023-05-27T17:51:43;23.70;1.00
41547;DHT22;27271;45.412;10.852;2023-05-27T17:55:06;23.60;1.00
41547;DHT22;27271;45.412;10.852;2023-05-27T17:58:28;23.40;1.00
41547;DHT22;27271;45.412;10.852;2023-05-27T18:01:50;23.30;1.00
41547;DHT22;27271;45.412;10.852;2023-05-27T18:05:13;23.20;1.00
41547;DHT22;27271;45.412;10.852;2023-05-27T18:08:35;23.00;1.00
41547;DHT22;27271;45.412;10.852;2023-05-27T18:11:57;22.80;1.00
41547;DHT22;27271;45.412;10.852;2023-05-27T18:15:19;22.70;1.00
41547;DHT22;27271;45.412;10.852;2023-05-27T18:18:41;22.50;1.00
41547;DHT22;27271;45.412;10.852;2023-05-27T18:22:03;22.30;1.00
41547;DHT22;27271;45.412;10.852;2023-05-27T18:25:25;22.30;1.00
41547;DHT22;27271;45.412;10.852;2023-05-27T18:28:48;22.20;1.00
41547;DHT22;27271;45.412;10.852;2023-05-27T18:32:10;22.10;1.00
41547;DHT22;27271;45.412;10.852;2023-05-27T18:35:32;22.00;1.00
41547;DHT22;27271;45.412;10.852;2023-05-27T18:38:57;21.80;1.00
41547;DHT22;27271;45.412;10.852;2023-05-27T18:42:20;21.80;1.00
41547;DHT22;27271;45.412;10.852;2023-05-27T18:46:00;21.80;1.00
41547;DHT22;27271;45.412;10.852;2023-05-27T18:49:23;21.70;1.00
41547;DHT22;27271;45.412;10.852;2023-05-27T18:52:45;21.70;1.00
41547;DHT22;27271;45.412;10.852;2023-05-27T18:56:08;21.70;1.00
41547;DHT22;27271;45.412;10.852;2023-05-27T18:59:32;21.70;1.00
41547;DHT22;27271;45.412;10.852;2023-05-27T19:02:54;21.70;1.00
41547;DHT22;27271;45.412;10.852;2023-05-27T19:06:16;21.70;2.50
41547;DHT22;27271;45.412;10.852;2023-05-27T19:09:39;21.60;8.60
41547;DHT22;27271;45.412;10.852;2023-05-27T19:13:01;21.50;1.00
41547;DHT22;27271;45.412;10.852;2023-05-27T19:16:25;21.40;1.00
41547;DHT22;27271;45.412;10.852;2023-05-27T19:19:47;21.40;1.00
41547;DHT22;27271;45.412;10.852;2023-05-27T19:23:09;21.40;1.00
41547;DHT22;27271;45.412;10.852;2023-05-27T19:26:32;21.40;7.50
41547;DHT22;27271;45.412;10.852;2023-05-27T19:29:54;21.30;1.00
41547;DHT22;27271;45.412;10.852;2023-05-27T19:33:16;21.30;8.50
41547;DHT22;27271;45.412;10.852;2023-05-27T19:36:38;21.40;15.70
41547;DHT22;27271;45.412;10.852;2023-05-27T19:40:00;21.30;10.70
41547;DHT22;27271;45.412;10.852;2023-05-27T19:43:22;21.30;1.00
41547;DHT22;27271;45.412;10.852;2023-05-27T19:46:44;21.30;1.00
41547;DHT22;27271;45.412;10.852;2023-05-27T19:50:07;21.30;5.80
41547;DHT22;27271;45.412;10.852;2023-05-27T19:53:30;21.30;1.90
41547;DHT22;27271;45.412;10.852;2023-05-27T19:56:52;21.30;1.00
41547;DHT22;27271;45.412;10.852;2023-05-27T20:00:15;21.20;12.40
41547;DHT22;27271;45.412;10.852;2023-05-27T20:03:38;21.20;9.80
41547;DHT22;27271;45.412;10.852;2023-05-27T20:07:00;21.20;16.30
41547;DHT22;27271;45.412;10.852;2023-05-27T20:10:22;21.10;57.50
41547;DHT22;27271;45.412;10.852;2023-05-27T20:13:44;21.10;48.00
41547;DHT22;27271;45.412;10.852;2023-05-27T20:17:06;21.10;36.60
41547;DHT22;27271;45.412;10.852;2023-05-27T20:20:29;21.00;26.60
41547;DHT22;27271;45.412;10.852;2023-05-27T20:23:56;20.90;44.70
41547;DHT22;27271;45.412;10.852;2023-05-27T20:27:20;20.80;27.70
41547;DHT22;27271;45.412;10.852;2023-05-27T20:30:42;20.80;41.00
41547;DHT22;27271;45.412;10.852;2023-05-27T20:34:04;20.70;58.90
41547;DHT22;27271;45.412;10.852;2023-05-27T20:37:27;20.60;90.00
41547;DHT22;27271;45.412;10.852;2023-05-27T20:40:51;20.40;99.90
41547;DHT22;27271;45.412;10.852;2023-05-27T20:44:14;20.30;99.90
41547;DHT22;27271;45.412;10.852;2023-05-27T20:47:36;20.20;99.90
41547;DHT22;27271;45.412;10.852;2023-05-27T20:51:01;20.10;99.90
41547;DHT22;27271;45.412;10.852;2023-05-27T20:54:23;20.00;99.90
41547;DHT22;27271;45.412;10.852;2023-05-27T20:57:46;19.90;99.90
41547;DHT22;27271;45.412;10.852;2023-05-27T21:01:08;19.70;99.90
41547;DHT22;27271;45.412;10.852;2023-05-27T21:04:31;19.60;99.90
41547;DHT22;27271;45.412;10.852;2023-05-27T21:07:53;19.60;99.90
41547;DHT22;27271;45.412;10.852;2023-05-27T21:11:15;19.50;99.90
41547;DHT22;27271;45.412;10.852;2023-05-27T21:14:38;19.50;99.90